createdAt,value
2018-01-22T00:01:19.156Z,10.57
2018-01-22T00:03:45.434Z,11.32
2018-01-22T00:06:11.666Z,9.23
2018-01-22T00:08:38.663Z,12.27
2018-01-22T00:11:04.887Z,10.60
2018-01-22T00:13:31.136Z,11.20
2018-01-22T00:15:57.376Z,10.25
2018-01-22T00:18:23.584Z,9.68
2018-01-22T00:20:50.581Z,10.80
2018-01-22T00:23:16.827Z,10.23
2018-01-22T00:25:43.073Z,12.80
2018-01-22T00:28:09.298Z,13.52
2018-01-22T00:30:35.536Z,12.60
2018-01-22T00:33:01.785Z,11.18
2018-01-22T00:35:28.012Z,11.52
2018-01-22T00:37:54.294Z,12.37
2018-01-22T00:40:20.534Z,9.93
2018-01-22T00:42:46.784Z,10.07
2018-01-22T00:45:13.105Z,10.30
2018-01-22T00:47:39.440Z,9.98
2018-01-22T00:50:05.687Z,11.70
2018-01-22T00:52:31.959Z,10.35
2018-01-22T00:54:58.200Z,10.65
2018-01-22T00:57:25.153Z,10.85
2018-01-22T00:59:51.425Z,9.93
2018-01-22T01:02:17.663Z,10.48
2018-01-22T01:04:43.935Z,10.50
2018-01-22T01:07:10.167Z,9.63
2018-01-22T01:09:36.435Z,10.27
2018-01-22T01:12:02.687Z,9.27
2018-01-22T01:14:28.930Z,8.73
2018-01-22T01:16:55.417Z,10.00
2018-01-22T01:19:21.664Z,9.45
2018-01-22T01:21:47.899Z,9.68
2018-01-22T01:24:14.142Z,8.65
2018-01-22T01:26:40.373Z,9.45
2018-01-22T01:29:06.624Z,9.95
2018-01-22T01:31:32.861Z,9.43
2018-01-22T01:33:59.121Z,9.02
2018-01-22T01:36:25.378Z,9.10
2018-01-22T01:38:51.640Z,9.35
2018-01-22T01:41:17.867Z,8.57
2018-01-22T01:43:44.122Z,9.27
2018-01-22T01:46:10.326Z,8.77
2018-01-22T01:48:36.613Z,8.10
2018-01-22T01:51:02.860Z,8.45
2018-01-22T01:53:29.876Z,8.38
2018-01-22T01:55:56.096Z,8.25
2018-01-22T01:58:22.342Z,8.60
2018-01-22T02:00:48.647Z,8.68
2018-01-22T02:03:15.667Z,7.35
2018-01-22T02:05:41.912Z,9.52
2018-01-22T02:08:08.148Z,7.75
2018-01-22T02:10:34.411Z,8.52
2018-01-22T02:13:00.657Z,9.35
2018-01-22T02:15:26.936Z,9.35
2018-01-22T02:17:53.204Z,9.70
2018-01-22T02:20:19.433Z,8.85
2018-01-22T02:22:45.692Z,8.20
2018-01-22T02:25:11.956Z,7.55
2018-01-22T02:27:38.203Z,9.40
2018-01-22T02:30:04.490Z,7.60
2018-01-22T02:32:30.729Z,8.48
2018-01-22T02:34:56.970Z,8.40
2018-01-22T02:37:23.209Z,8.45
2018-01-22T02:39:49.482Z,8.13
2018-01-22T02:42:15.766Z,7.12
2018-01-22T02:44:42.734Z,7.82
2018-01-22T02:47:09.019Z,7.75
2018-01-22T02:49:35.994Z,8.18
2018-01-22T02:52:02.212Z,7.70
2018-01-22T02:54:28.498Z,6.60
2018-01-22T02:56:55.483Z,6.85
2018-01-22T02:59:21.726Z,7.37
2018-01-22T03:01:47.964Z,6.70
2018-01-22T03:04:14.226Z,6.03
2018-01-22T03:06:40.483Z,6.32
2018-01-22T03:09:06.712Z,6.18
2018-01-22T03:11:32.972Z,6.62
2018-01-22T03:13:59.221Z,5.97
2018-01-22T03:16:25.499Z,6.03
2018-01-22T03:18:51.760Z,7.00
2018-01-22T03:21:18.020Z,6.70
2018-01-22T03:23:44.272Z,5.75
2018-01-22T03:26:10.520Z,6.28
2018-01-22T03:28:36.851Z,6.82
2018-01-22T03:31:03.113Z,6.28
2018-01-22T03:33:29.401Z,6.18
2018-01-22T03:35:55.623Z,6.45
2018-01-22T03:38:22.595Z,6.80
2018-01-22T03:40:48.849Z,6.90
2018-01-22T03:43:15.085Z,6.12
2018-01-22T03:45:41.377Z,6.45
2018-01-22T03:48:07.615Z,6.57
2018-01-22T03:50:33.870Z,6.62
2018-01-22T03:53:00.869Z,7.55
2018-01-22T03:55:27.100Z,7.25
2018-01-22T03:57:53.352Z,7.45
2018-01-22T04:00:19.580Z,5.93
2018-01-22T04:02:45.850Z,8.10
2018-01-22T04:05:12.088Z,8.18
2018-01-22T04:07:38.322Z,7.70
2018-01-22T04:10:04.568Z,7.20
2018-01-22T04:12:30.801Z,8.73
2018-01-22T04:14:57.039Z,7.70
2018-01-22T04:17:24.124Z,6.25
2018-01-22T04:19:50.318Z,6.93
2018-01-22T04:22:16.584Z,7.60
2018-01-22T04:24:42.819Z,7.53
2018-01-22T04:27:09.099Z,7.20
2018-01-22T04:29:35.371Z,7.28
2018-01-22T04:32:02.371Z,7.35
2018-01-22T04:34:28.636Z,6.82
2018-01-22T04:36:54.851Z,7.18
2018-01-22T04:39:21.112Z,6.78
2018-01-22T04:41:47.351Z,7.47
2018-01-22T04:44:13.587Z,7.75
2018-01-22T04:46:39.880Z,7.57
2018-01-22T04:49:06.102Z,6.32
2018-01-22T04:51:33.117Z,6.93
2018-01-22T04:53:59.366Z,7.20
2018-01-22T04:56:25.600Z,8.50
2018-01-22T04:58:51.854Z,9.90
2018-01-22T05:01:18.095Z,7.85
2018-01-22T05:03:44.396Z,5.78
2018-01-22T05:06:10.638Z,8.70
2018-01-22T05:08:37.361Z,5.60
2018-01-22T05:11:04.355Z,4.93
2018-01-22T05:13:30.597Z,5.40
2018-01-22T05:15:56.869Z,3.80
2018-01-22T05:18:23.138Z,3.37
2018-01-22T05:20:50.396Z,3.85
2018-01-22T05:23:17.366Z,3.60
2018-01-22T05:25:44.327Z,3.00
2018-01-22T05:28:11.375Z,3.78
2018-01-22T05:30:37.836Z,2.87
2018-01-22T05:33:04.847Z,2.83
2018-01-22T05:35:31.111Z,2.10
2018-01-22T05:37:57.380Z,2.60
2018-01-22T05:40:23.627Z,2.30
2018-01-22T05:42:49.899Z,2.25
2018-01-22T05:45:16.167Z,1.67
2018-01-22T05:47:42.391Z,1.65
2018-01-22T05:50:08.643Z,2.10
2018-01-22T05:52:34.882Z,1.90
2018-01-22T05:55:01.158Z,1.98
2018-01-22T05:57:28.198Z,1.65
2018-01-22T05:59:54.471Z,2.10
2018-01-22T06:02:20.808Z,1.92
2018-01-22T06:04:47.047Z,2.10
2018-01-22T06:07:13.307Z,1.90
2018-01-22T06:09:39.600Z,2.08
2018-01-22T06:12:05.853Z,2.08
2018-01-22T06:14:32.848Z,1.83
2018-01-22T06:16:59.104Z,1.90
2018-01-22T06:19:25.335Z,1.35
2018-01-22T06:21:51.661Z,2.05
2018-01-22T06:24:17.887Z,2.08
2018-01-22T06:26:44.897Z,2.55
2018-01-22T06:29:11.205Z,1.95
2018-01-22T06:31:37.471Z,2.45
2018-01-22T06:34:03.735Z,1.80
2018-01-22T06:36:29.968Z,2.08
2018-01-22T06:38:56.214Z,2.28
2018-01-22T06:41:22.471Z,2.80
2018-01-22T06:43:48.755Z,2.95
2018-01-22T06:46:14.995Z,2.47
2018-01-22T06:48:41.267Z,3.00
2018-01-22T06:51:07.526Z,3.15
2018-01-22T06:53:33.758Z,2.45
2018-01-22T06:56:00.057Z,3.40
2018-01-22T06:58:26.298Z,3.90
2018-01-22T07:00:52.593Z,2.85
2018-01-22T07:03:18.859Z,2.85
2018-01-22T07:05:45.088Z,3.35
2018-01-22T07:08:12.093Z,3.65
2018-01-22T07:10:38.704Z,3.58
2018-01-22T07:13:05.688Z,4.28
2018-01-22T07:15:31.921Z,4.85
2018-01-22T07:17:58.193Z,3.30
2018-01-22T07:20:24.439Z,3.30
2018-01-22T07:22:50.653Z,3.22
2018-01-22T07:25:16.894Z,3.67
2018-01-22T07:27:43.138Z,3.20
2018-01-22T07:30:09.383Z,3.95
2018-01-22T07:32:35.668Z,3.03
2018-01-22T07:35:01.949Z,3.75
2018-01-22T07:37:28.212Z,3.80
2018-01-22T07:39:54.465Z,3.80
2018-01-22T07:42:20.710Z,4.43
2018-01-22T07:44:46.959Z,3.70
2018-01-22T07:47:13.250Z,4.20
2018-01-22T07:49:39.496Z,4.22
2018-01-22T07:52:05.746Z,4.05
2018-01-22T07:54:32.002Z,3.50
2018-01-22T07:56:58.268Z,4.80
2018-01-22T07:59:24.552Z,4.95
2018-01-22T08:01:50.783Z,5.00
2018-01-22T08:04:17.767Z,4.00
2018-01-22T08:06:44.037Z,3.62
2018-01-22T08:09:10.285Z,3.55
2018-01-22T08:11:36.533Z,4.45
2018-01-22T08:14:02.779Z,3.60
2018-01-22T08:16:29.058Z,3.35
2018-01-22T08:18:55.328Z,2.70
2018-01-22T08:21:21.615Z,3.62
2018-01-22T08:23:48.614Z,3.30
2018-01-22T08:26:14.849Z,3.40
2018-01-22T08:28:41.096Z,3.50
2018-01-22T08:31:07.348Z,3.97
2018-01-22T08:33:33.647Z,3.75
2018-01-22T08:36:00.646Z,4.60
2018-01-22T08:38:26.888Z,5.37
2018-01-22T08:40:53.418Z,4.30
2018-01-22T08:43:19.667Z,2.80
2018-01-22T08:45:45.906Z,3.55
2018-01-22T08:48:12.192Z,3.22
2018-01-22T08:50:38.486Z,3.67
2018-01-22T08:53:05.045Z,3.53
2018-01-22T08:55:31.281Z,3.67
2018-01-22T08:57:57.523Z,2.75
2018-01-22T09:00:23.770Z,3.87
2018-01-22T09:02:50.022Z,4.15
2018-01-22T09:05:16.289Z,5.03
2018-01-22T09:07:43.296Z,3.75
2018-01-22T09:10:09.576Z,3.85
2018-01-22T09:12:35.825Z,3.90
2018-01-22T09:15:02.096Z,3.90
2018-01-22T09:17:29.135Z,4.50
2018-01-22T09:19:56.117Z,3.78
2018-01-22T09:22:22.394Z,3.70
2018-01-22T09:24:48.658Z,4.12
2018-01-22T09:27:14.931Z,4.35
2018-01-22T09:29:41.931Z,3.40
2018-01-22T09:32:08.178Z,3.70
2018-01-22T09:34:34.420Z,4.05
2018-01-22T09:37:00.646Z,4.32
2018-01-22T09:39:26.938Z,4.20
2018-01-22T09:41:53.191Z,3.78
2018-01-22T09:44:19.461Z,3.83
2018-01-22T09:46:45.737Z,3.85
2018-01-22T09:49:12.030Z,3.53
2018-01-22T09:51:38.564Z,3.72
2018-01-22T09:54:05.545Z,4.93
2018-01-22T09:56:31.798Z,6.32
2018-01-22T09:58:58.088Z,4.35
2018-01-22T10:01:24.327Z,5.15
2018-01-22T10:03:50.578Z,5.50
2018-01-22T10:06:17.544Z,6.28
2018-01-22T10:08:44.576Z,5.20
2018-01-22T10:11:10.869Z,4.15
2018-01-22T10:13:37.146Z,5.05
2018-01-22T10:16:03.572Z,4.45
2018-01-22T10:18:29.849Z,4.10
2018-01-22T10:20:56.108Z,5.15
2018-01-22T10:23:23.144Z,4.15
2018-01-22T10:25:49.391Z,4.18
2018-01-22T10:28:15.651Z,4.50
2018-01-22T10:30:42.659Z,4.80
2018-01-22T10:33:08.929Z,5.37
2018-01-22T10:35:35.200Z,5.28
2018-01-22T10:38:01.470Z,5.18
2018-01-22T10:40:27.713Z,4.93
2018-01-22T10:42:53.973Z,5.85
2018-01-22T10:45:20.236Z,4.40
2018-01-22T10:47:46.496Z,4.72
2018-01-22T10:50:13.525Z,4.95
2018-01-22T10:52:39.878Z,4.70
2018-01-22T10:55:06.320Z,7.00
2018-01-22T10:57:32.573Z,5.62
2018-01-22T10:59:58.806Z,5.15
2018-01-22T11:02:25.078Z,4.55
2018-01-22T11:04:52.048Z,5.25
2018-01-22T11:07:18.324Z,4.35
2018-01-22T11:09:44.566Z,4.20
2018-01-22T11:12:10.807Z,4.53
2018-01-22T11:14:43.976Z,4.97
2018-01-22T11:17:10.259Z,5.10
2018-01-22T11:19:36.539Z,4.47
2018-01-22T11:22:03.745Z,4.80
2018-01-22T11:24:29.989Z,5.47
2018-01-22T11:26:56.248Z,4.70
2018-01-22T11:29:22.636Z,4.87
2018-01-22T11:31:56.523Z,5.85
2018-01-22T11:34:22.749Z,5.53
2018-01-22T11:36:49.023Z,5.50
2018-01-22T11:39:15.994Z,4.53
2018-01-22T11:41:42.275Z,4.30
2018-01-22T11:44:08.550Z,5.30
2018-01-22T11:46:34.788Z,5.32
2018-01-22T11:49:01.094Z,6.05
2018-01-22T11:51:27.333Z,6.40
2018-01-22T11:53:53.568Z,7.25
2018-01-22T11:56:19.890Z,6.20
2018-01-22T11:58:46.142Z,8.45
2018-01-22T12:01:12.427Z,10.10
2018-01-22T12:03:38.669Z,7.05
2018-01-22T12:06:04.899Z,6.28
2018-01-22T12:08:31.143Z,6.95
2018-01-22T12:10:57.367Z,6.20
2018-01-22T12:13:23.632Z,6.75
2018-01-22T12:15:49.894Z,4.68
2018-01-22T12:18:16.866Z,6.85
2018-01-22T12:20:43.607Z,6.20
2018-01-22T12:23:09.866Z,9.30
2018-01-22T12:25:36.143Z,8.65
2018-01-22T12:28:02.373Z,6.95
2018-01-22T12:30:28.627Z,8.30
2018-01-22T12:32:54.871Z,9.52
2018-01-22T12:35:21.076Z,9.88
2018-01-22T12:37:47.341Z,12.25
2018-01-22T12:40:13.575Z,12.70
2018-01-22T12:42:39.828Z,13.18
2018-01-22T12:45:06.099Z,8.40
2018-01-22T12:47:32.389Z,7.45
2018-01-22T12:49:58.625Z,6.82
2018-01-22T12:52:24.896Z,7.03
2018-01-22T12:54:51.124Z,7.35
2018-01-22T12:57:17.374Z,8.00
2018-01-22T12:59:43.644Z,7.78
2018-01-22T13:02:09.934Z,8.00
2018-01-22T13:04:36.191Z,8.93
2018-01-22T13:07:02.472Z,7.97
2018-01-22T13:09:29.464Z,11.00
2018-01-22T13:11:56.618Z,15.05
2018-01-22T13:14:22.863Z,14.35
2018-01-22T13:16:49.106Z,17.85
2018-01-22T13:19:15.380Z,20.88
2018-01-22T13:21:41.639Z,21.08
2018-01-22T13:24:07.921Z,18.35
2018-01-22T13:26:34.179Z,13.65
2018-01-22T13:29:00.727Z,15.23
2018-01-22T13:31:26.989Z,13.40
2018-01-22T13:33:53.207Z,11.32
2018-01-22T13:36:19.479Z,13.07
2018-01-22T13:38:45.711Z,13.80
2018-01-22T13:41:12.029Z,12.85
2018-01-22T13:43:38.278Z,13.48
2018-01-22T13:48:37.580Z,12.37
2018-01-22T13:51:04.863Z,11.40
2018-01-22T13:53:31.089Z,11.43
2018-01-22T13:55:57.335Z,11.63
2018-01-22T13:58:24.352Z,11.88
2018-01-22T14:00:50.611Z,13.25
2018-01-22T14:03:16.869Z,13.25
2018-01-22T14:05:43.860Z,13.95
2018-01-22T14:08:10.135Z,20.52
2018-01-22T14:10:36.398Z,20.17
2018-01-22T14:13:02.673Z,19.15
2018-01-22T14:15:28.923Z,17.62
2018-01-22T14:17:55.185Z,16.45
2018-01-22T14:20:21.695Z,22.20
2018-01-22T14:22:47.940Z,17.15
2018-01-22T14:25:14.224Z,18.58
2018-01-22T14:27:40.473Z,19.75
2018-01-22T14:30:06.751Z,16.73
2018-01-22T14:32:33.770Z,18.45
2018-01-22T14:35:00.088Z,17.02
2018-01-22T14:37:26.335Z,20.23
2018-01-22T14:39:52.604Z,12.75
2018-01-22T14:42:18.825Z,11.73
2018-01-22T14:44:45.110Z,8.85
2018-01-22T14:47:11.339Z,8.90
2018-01-22T14:49:38.328Z,6.93
2018-01-22T14:52:04.634Z,7.75
2018-01-22T14:54:30.907Z,7.50
2018-01-22T14:56:57.198Z,7.87
2018-01-22T14:59:23.533Z,3.33
2018-01-22T15:01:49.783Z,2.80
2018-01-22T15:04:16.809Z,2.12
2018-01-22T15:06:43.746Z,2.30
2018-01-22T15:09:10.030Z,2.12
2018-01-22T15:11:36.298Z,2.00
2018-01-22T15:14:02.564Z,1.80
2018-01-22T15:16:28.830Z,1.85
2018-01-22T15:18:55.108Z,2.10
2018-01-22T15:21:21.360Z,2.30
2018-01-22T15:23:47.632Z,2.35
2018-01-22T15:26:13.930Z,1.98
2018-01-22T15:28:40.195Z,2.70
2018-01-22T15:31:07.433Z,2.60
2018-01-22T15:33:33.742Z,1.83
2018-01-22T15:35:59.998Z,2.58
2018-01-22T15:38:26.280Z,3.20
2018-01-22T15:40:52.574Z,3.83
2018-01-22T15:43:18.848Z,4.22
2018-01-22T15:45:45.147Z,4.60
2018-01-22T15:48:11.496Z,3.45
2018-01-22T15:50:37.821Z,3.03
2018-01-22T15:53:04.064Z,2.80
2018-01-22T15:55:30.506Z,2.65
2018-01-22T15:57:56.782Z,2.60
2018-01-22T16:00:23.067Z,3.58
2018-01-22T16:02:49.325Z,3.50
2018-01-22T16:05:15.566Z,4.53
2018-01-22T16:07:41.849Z,4.43
2018-01-22T16:10:08.193Z,4.40
2018-01-22T16:12:34.459Z,4.20
2018-01-22T16:15:00.741Z,4.15
2018-01-22T16:17:27.053Z,4.87
2018-01-22T16:19:54.070Z,6.85
2018-01-22T16:22:20.389Z,6.95
2018-01-22T16:24:46.637Z,8.02
2018-01-22T16:27:12.907Z,6.90
2018-01-22T16:29:39.165Z,5.70
2018-01-22T16:32:05.436Z,5.30
2018-01-22T16:34:32.451Z,4.22
2018-01-22T16:36:58.728Z,5.90
2018-01-22T16:39:25.802Z,6.70
2018-01-22T16:41:52.075Z,6.05
2018-01-22T16:44:18.388Z,5.75
2018-01-22T16:46:50.647Z,6.85
2018-01-22T16:49:17.955Z,5.50
2018-01-22T16:51:44.258Z,6.40
2018-01-22T16:54:11.458Z,5.75
2018-01-22T16:56:37.804Z,5.70
2018-01-22T16:59:04.074Z,4.35
2018-01-22T17:01:30.585Z,4.68
2018-01-22T17:03:56.875Z,4.57
2018-01-22T17:06:23.139Z,5.05
2018-01-22T17:08:50.165Z,7.00
2018-01-22T17:11:16.432Z,5.12
2018-01-22T17:13:43.513Z,6.07
2018-01-22T17:16:09.811Z,7.90
2018-01-22T17:18:36.088Z,6.82
2018-01-22T17:21:02.386Z,6.12
2018-01-22T17:23:28.705Z,5.47
2018-01-22T17:25:54.975Z,5.62
2018-01-22T17:28:21.272Z,4.50
2018-01-22T17:30:47.590Z,4.75
2018-01-22T17:33:14.944Z,7.15
2018-01-22T17:35:41.960Z,8.82
2018-01-22T17:38:08.275Z,9.00
2018-01-22T17:40:34.574Z,7.53
2018-01-22T17:43:00.911Z,6.93
2018-01-22T17:45:27.236Z,7.57
2018-01-22T17:47:53.562Z,7.62
2018-01-22T17:50:19.885Z,7.75
2018-01-22T17:52:46.221Z,8.15
2018-01-22T17:55:13.266Z,6.20
2018-01-22T17:57:39.585Z,6.20
2018-01-22T18:00:05.924Z,5.68
2018-01-22T18:02:32.207Z,5.85
2018-01-22T18:04:58.516Z,6.53
2018-01-22T18:07:24.809Z,5.60
2018-01-22T18:09:51.194Z,7.43
2018-01-22T18:12:17.539Z,6.87
2018-01-22T18:14:43.922Z,7.50
2018-01-22T18:17:10.427Z,7.40
2018-01-22T18:19:36.729Z,8.98
2018-01-22T18:22:03.138Z,13.50
2018-01-22T18:24:30.245Z,18.48
2018-01-22T18:26:56.572Z,12.95
2018-01-22T18:29:22.870Z,13.95
2018-01-22T18:31:49.339Z,9.85
2018-01-22T18:34:15.711Z,7.78
2018-01-22T18:36:42.033Z,4.95
2018-01-22T18:39:08.406Z,4.50
2018-01-22T18:41:34.783Z,3.12
2018-01-22T18:44:01.172Z,3.15
2018-01-22T18:46:27.535Z,2.35
2018-01-22T18:48:53.829Z,2.40
2018-01-22T18:51:20.944Z,2.20
2018-01-22T18:53:47.261Z,2.12
2018-01-22T18:56:13.629Z,2.70
2018-01-22T18:58:39.993Z,8.43
2018-01-22T19:01:06.358Z,3.10
2018-01-22T19:03:33.485Z,2.00
2018-01-22T19:05:59.856Z,2.10
2018-01-22T19:08:26.202Z,1.95
2018-01-22T19:10:52.535Z,2.40
2018-01-22T19:13:19.383Z,4.90
2018-01-22T19:15:45.836Z,8.73
2018-01-22T19:18:12.173Z,7.32
2018-01-22T19:20:38.572Z,9.65
2018-01-22T19:23:04.892Z,7.90
2018-01-22T19:25:32.004Z,7.18
2018-01-22T19:27:58.367Z,8.20
2018-01-22T19:30:24.719Z,6.82
2018-01-22T19:32:51.092Z,6.10
2018-01-22T19:35:17.495Z,6.40
2018-01-22T19:37:43.898Z,9.30
2018-01-22T19:40:10.276Z,17.08
2018-01-22T19:42:36.669Z,7.07
2018-01-22T19:45:03.088Z,6.30
2018-01-22T19:47:29.427Z,6.32
2018-01-22T19:49:55.804Z,6.18
2018-01-22T19:52:22.215Z,5.20
2018-01-22T19:54:48.619Z,3.85
2018-01-22T19:57:14.968Z,3.22
2018-01-22T19:59:41.331Z,2.83
2018-01-22T20:02:07.708Z,3.10
2018-01-22T20:04:34.083Z,3.45
2018-01-22T20:07:00.586Z,2.65
2018-01-22T20:09:26.943Z,3.35
2018-01-22T20:11:54.058Z,3.03
2018-01-22T20:14:20.530Z,2.90
2018-01-22T20:16:46.843Z,3.12
2018-01-22T20:19:13.251Z,2.75
2018-01-22T20:21:39.658Z,3.55
2018-01-22T20:24:06.055Z,3.92
2018-01-22T20:26:32.437Z,4.10
2018-01-22T20:28:59.645Z,4.35
2018-01-22T20:31:26.023Z,4.10
2018-01-22T20:33:52.466Z,3.92
2018-01-22T20:36:18.865Z,4.70
2018-01-22T20:38:45.256Z,4.75
2018-01-22T20:41:11.569Z,7.78
2018-01-22T20:43:37.979Z,6.82
2018-01-22T20:46:04.389Z,5.97
2018-01-22T20:48:30.716Z,6.00
2018-01-22T20:50:57.113Z,8.07
2018-01-22T20:53:24.232Z,6.90
2018-01-22T20:55:50.613Z,6.40
2018-01-22T20:58:17.735Z,5.25
2018-01-22T21:00:44.120Z,6.10
2018-01-22T21:03:10.548Z,5.37
2018-01-22T21:05:36.873Z,5.95
2018-01-22T21:08:03.225Z,5.55
2018-01-22T21:10:29.596Z,6.68
2018-01-22T21:12:56.660Z,5.82
2018-01-22T21:15:23.778Z,7.20
2018-01-22T21:17:50.133Z,7.00
2018-01-22T21:20:16.465Z,8.15
2018-01-22T21:22:42.757Z,8.15
2018-01-22T21:25:09.816Z,6.80
2018-01-22T21:27:36.137Z,7.18
2018-01-22T21:30:02.464Z,9.00
2018-01-22T21:32:28.774Z,7.97
2018-01-22T21:34:55.037Z,8.85
2018-01-22T21:37:21.343Z,7.55
2018-01-22T21:39:47.653Z,9.15
2018-01-22T21:42:13.897Z,8.98
2018-01-22T21:44:40.164Z,8.27
2018-01-22T21:47:07.203Z,8.02
2018-01-22T21:49:34.197Z,9.05
2018-01-22T21:52:00.458Z,9.30
2018-01-22T21:54:26.738Z,9.00
2018-01-22T21:56:53.020Z,10.65
2018-01-22T21:59:19.305Z,9.95
2018-01-22T22:01:45.542Z,9.95
2018-01-22T22:04:11.827Z,9.77
2018-01-22T22:06:38.090Z,9.77
2018-01-22T22:09:04.371Z,9.93
2018-01-22T22:11:30.629Z,10.00
2018-01-22T22:13:56.872Z,9.20
2018-01-22T22:16:23.173Z,10.50
2018-01-22T22:18:49.407Z,10.35
2018-01-22T22:21:15.689Z,11.12
2018-01-22T22:23:41.949Z,10.95
2018-01-22T22:26:08.212Z,10.27
2018-01-22T22:28:34.492Z,10.02
2018-01-22T22:31:00.729Z,10.68
2018-01-22T22:33:26.954Z,11.35
2018-01-22T22:35:53.232Z,11.70
2018-01-22T22:38:20.269Z,11.35
2018-01-22T22:40:46.543Z,11.27
2018-01-22T22:43:12.772Z,11.73
2018-01-22T22:45:39.048Z,11.43
2018-01-22T22:48:05.301Z,11.30
2018-01-22T22:50:31.525Z,13.48
2018-01-22T22:52:57.802Z,12.93
2018-01-22T22:55:24.051Z,13.27
2018-01-22T22:57:50.346Z,13.82
2018-01-22T23:00:16.613Z,13.15
2018-01-22T23:02:42.896Z,14.90
2018-01-22T23:05:09.151Z,16.75
2018-01-22T23:07:35.396Z,15.85
2018-01-22T23:10:02.457Z,14.90
2018-01-22T23:12:28.716Z,15.73
2018-01-22T23:14:54.977Z,16.08
2018-01-22T23:17:21.221Z,14.82
2018-01-22T23:19:47.431Z,13.95
2018-01-22T23:22:13.769Z,15.35
2018-01-22T23:24:40.751Z,16.27
2018-01-22T23:27:07.008Z,14.48
2018-01-22T23:29:33.256Z,15.77
2018-01-22T23:31:59.519Z,15.90
2018-01-22T23:34:25.763Z,16.60
2018-01-22T23:36:51.999Z,14.93
2018-01-22T23:39:18.265Z,15.63
2018-01-22T23:41:44.516Z,14.20
2018-01-22T23:44:11.504Z,15.10
2018-01-22T23:46:37.753Z,16.00
2018-01-22T23:49:03.998Z,14.65
2018-01-22T23:51:30.243Z,15.77
2018-01-22T23:53:56.477Z,14.40
2018-01-22T23:56:22.763Z,14.13
2018-01-22T23:58:49.714Z,14.73
